sensor_id;sensor_type;location;lat;lon;timestamp;temperature;humidity
12688;DHT22;6408;59.388;17.798;2022-07-31T00:01:36;17.30;99.90
12688;DHT22;6408;59.388;17.798;2022-07-31T00:04:04;17.30;99.90
12688;DHT22;6408;59.388;17.798;2022-07-31T00:06:31;17.20;99.90
12688;DHT22;6408;59.388;17.798;2022-07-31T00:08:58;17.20;99.90
12688;DHT22;6408;59.388;17.798;2022-07-31T00:11:25;17.20;99.90
12688;DHT22;6408;59.388;17.798;2022-07-31T00:13:51;17.20;99.90
12688;DHT22;6408;59.388;17.798;2022-07-31T00:16:18;17.10;99.90
12688;DHT22;6408;59.388;17.798;2022-07-31T00:18:45;17.00;99.90
12688;DHT22;6408;59.388;17.798;2022-07-31T00:21:13;16.90;99.90
12688;DHT22;6408;59.388;17.798;2022-07-31T00:23:40;16.90;99.90
12688;DHT22;6408;59.388;17.798;2022-07-31T00:26:07;17.00;99.90
12688;DHT22;6408;59.388;17.798;2022-07-31T00:28:34;16.90;99.90
12688;DHT22;6408;59.388;17.798;2022-07-31T00:31:02;16.90;99.90
12688;DHT22;6408;59.388;17.798;2022-07-31T00:33:28;16.90;99.90
12688;DHT22;6408;59.388;17.798;2022-07-31T00:35:55;16.90;99.90
12688;DHT22;6408;59.388;17.798;2022-07-31T00:38:23;16.80;99.90
12688;DHT22;6408;59.388;17.798;2022-07-31T00:40:51;16.80;99.90
12688;DHT22;6408;59.388;17.798;2022-07-31T00:43:17;16.70;99.90
12688;DHT22;6408;59.388;17.798;2022-07-31T00:45:44;16.60;99.90
12688;DHT22;6408;59.388;17.798;2022-07-31T00:48:11;16.60;99.90
12688;DHT22;6408;59.388;17.798;2022-07-31T00:50:38;16.60;99.90
12688;DHT22;6408;59.388;17.798;2022-07-31T00:53:04;16.50;99.90
12688;DHT22;6408;59.388;17.798;2022-07-31T00:55:33;16.50;99.90
12688;DHT22;6408;59.388;17.798;2022-07-31T00:57:59;16.60;99.90
12688;DHT22;6408;59.388;17.798;2022-07-31T01:00:26;16.50;99.90
12688;DHT22;6408;59.388;17.798;2022-07-31T01:02:53;16.50;99.90
12688;DHT22;6408;59.388;17.798;2022-07-31T01:05:20;16.50;99.90
12688;DHT22;6408;59.388;17.798;2022-07-31T01:07:47;16.50;99.90
12688;DHT22;6408;59.388;17.798;2022-07-31T01:10:18;16.50;99.90
12688;DHT22;6408;59.388;17.798;2022-07-31T01:12:55;16.50;99.90
12688;DHT22;6408;59.388;17.798;2022-07-31T01:15:22;16.50;99.90
12688;DHT22;6408;59.388;17.798;2022-07-31T01:17:52;16.50;99.90
12688;DHT22;6408;59.388;17.798;2022-07-31T01:20:20;16.50;99.90
12688;DHT22;6408;59.388;17.798;2022-07-31T01:23:11;16.50;99.90
12688;DHT22;6408;59.388;17.798;2022-07-31T01:25:46;16.40;99.90
12688;DHT22;6408;59.388;17.798;2022-07-31T01:28:27;16.30;99.90
12688;DHT22;6408;59.388;17.798;2022-07-31T01:31:01;16.40;99.90
12688;DHT22;6408;59.388;17.798;2022-07-31T01:33:33;16.40;99.90
12688;DHT22;6408;59.388;17.798;2022-07-31T01:36:05;16.30;99.90
12688;DHT22;6408;59.388;17.798;2022-07-31T01:38:37;16.20;99.90
12688;DHT22;6408;59.388;17.798;2022-07-31T01:41:10;16.20;99.90
12688;DHT22;6408;59.388;17.798;2022-07-31T01:43:39;16.20;99.90
12688;DHT22;6408;59.388;17.798;2022-07-31T01:46:11;16.20;99.90
12688;DHT22;6408;59.388;17.798;2022-07-31T01:48:40;16.20;99.90
12688;DHT22;6408;59.388;17.798;2022-07-31T01:51:08;16.20;99.90
12688;DHT22;6408;59.388;17.798;2022-07-31T01:53:35;16.20;99.90
12688;DHT22;6408;59.388;17.798;2022-07-31T01:56:05;16.20;99.90
12688;DHT22;6408;59.388;17.798;2022-07-31T01:58:34;16.20;99.90
12688;DHT22;6408;59.388;17.798;2022-07-31T02:01:03;16.20;99.90
12688;DHT22;6408;59.388;17.798;2022-07-31T02:03:33;16.10;99.90
12688;DHT22;6408;59.388;17.798;2022-07-31T02:06:00;16.10;99.90
12688;DHT22;6408;59.388;17.798;2022-07-31T02:08:29;16.20;99.90
12688;DHT22;6408;59.388;17.798;2022-07-31T02:10:58;16.20;99.90
12688;DHT22;6408;59.388;17.798;2022-07-31T02:13:26;16.20;99.90
12688;DHT22;6408;59.388;17.798;2022-07-31T02:15:55;16.10;99.90
12688;DHT22;6408;59.388;17.798;2022-07-31T02:18:23;16.10;99.90
12688;DHT22;6408;59.388;17.798;2022-07-31T02:20:52;16.00;99.90
12688;DHT22;6408;59.388;17.798;2022-07-31T02:23:20;16.00;99.90
12688;DHT22;6408;59.388;17.798;2022-07-31T02:25:47;16.00;99.90
12688;DHT22;6408;59.388;17.798;2022-07-31T02:28:17;16.00;99.90
12688;DHT22;6408;59.388;17.798;2022-07-31T02:30:46;16.10;99.90
12688;DHT22;6408;59.388;17.798;2022-07-31T02:33:18;16.10;99.90
12688;DHT22;6408;59.388;17.798;2022-07-31T02:35:47;16.10;99.90
12688;DHT22;6408;59.388;17.798;2022-07-31T02:38:18;16.10;99.90
12688;DHT22;6408;59.388;17.798;2022-07-31T02:40:46;16.10;99.90
12688;DHT22;6408;59.388;17.798;2022-07-31T02:43:14;16.10;99.90
12688;DHT22;6408;59.388;17.798;2022-07-31T02:45:41;16.10;99.90
12688;DHT22;6408;59.388;17.798;2022-07-31T02:48:09;16.10;99.90
12688;DHT22;6408;59.388;17.798;2022-07-31T02:50:36;16.10;99.90
12688;DHT22;6408;59.388;17.798;2022-07-31T02:53:04;16.10;99.90
12688;DHT22;6408;59.388;17.798;2022-07-31T02:55:32;16.10;99.90
12688;DHT22;6408;59.388;17.798;2022-07-31T02:58:00;16.10;99.90
12688;DHT22;6408;59.388;17.798;2022-07-31T03:00:28;16.10;99.90
12688;DHT22;6408;59.388;17.798;2022-07-31T03:02:56;16.10;99.90
12688;DHT22;6408;59.388;17.798;2022-07-31T03:05:23;16.10;99.90
12688;DHT22;6408;59.388;17.798;2022-07-31T03:07:50;16.00;99.90
12688;DHT22;6408;59.388;17.798;2022-07-31T03:10:17;16.10;99.90
12688;DHT22;6408;59.388;17.798;2022-07-31T03:12:47;16.10;99.90
12688;DHT22;6408;59.388;17.798;2022-07-31T03:15:16;16.10;99.90
12688;DHT22;6408;59.388;17.798;2022-07-31T03:17:44;16.00;99.90
12688;DHT22;6408;59.388;17.798;2022-07-31T03:20:13;16.00;99.90
12688;DHT22;6408;59.388;17.798;2022-07-31T03:22:42;16.10;99.90
12688;DHT22;6408;59.388;17.798;2022-07-31T03:25:09;16.10;99.90
12688;DHT22;6408;59.388;17.798;2022-07-31T03:27:37;16.10;99.90
12688;DHT22;6408;59.388;17.798;2022-07-31T03:30:13;16.10;99.90
12688;DHT22;6408;59.388;17.798;2022-07-31T03:32:40;16.10;99.90
12688;DHT22;6408;59.388;17.798;2022-07-31T03:35:08;16.20;99.90
12688;DHT22;6408;59.388;17.798;2022-07-31T03:37:34;16.20;99.90
12688;DHT22;6408;59.388;17.798;2022-07-31T03:40:01;16.30;99.90
12688;DHT22;6408;59.388;17.798;2022-07-31T03:42:28;16.40;99.90
12688;DHT22;6408;59.388;17.798;2022-07-31T03:44:55;16.50;99.90
12688;DHT22;6408;59.388;17.798;2022-07-31T03:47:23;16.60;99.90
12688;DHT22;6408;59.388;17.798;2022-07-31T03:49:50;16.70;99.90
12688;DHT22;6408;59.388;17.798;2022-07-31T03:52:18;16.80;99.90
12688;DHT22;6408;59.388;17.798;2022-07-31T03:54:45;16.90;99.90
12688;DHT22;6408;59.388;17.798;2022-07-31T03:57:13;17.00;99.90
12688;DHT22;6408;59.388;17.798;2022-07-31T03:59:41;17.10;99.90
12688;DHT22;6408;59.388;17.798;2022-07-31T04:02:08;17.20;99.90
12688;DHT22;6408;59.388;17.798;2022-07-31T04:04:37;17.30;99.90
12688;DHT22;6408;59.388;17.798;2022-07-31T04:07:04;17.40;99.90
12688;DHT22;6408;59.388;17.798;2022-07-31T04:09:31;17.50;99.90
12688;DHT22;6408;59.388;17.798;2022-07-31T04:11:58;17.50;99.90
12688;DHT22;6408;59.388;17.798;2022-07-31T04:14:24;17.60;99.90
12688;DHT22;6408;59.388;17.798;2022-07-31T04:16:51;17.60;99.90
12688;DHT22;6408;59.388;17.798;2022-07-31T04:19:18;17.70;99.90
12688;DHT22;6408;59.388;17.798;2022-07-31T04:21:46;17.80;99.90
12688;DHT22;6408;59.388;17.798;2022-07-31T04:24:14;17.90;99.90
12688;DHT22;6408;59.388;17.798;2022-07-31T04:26:42;18.00;99.90
12688;DHT22;6408;59.388;17.798;2022-07-31T04:29:09;18.10;99.90
12688;DHT22;6408;59.388;17.798;2022-07-31T04:31:36;18.20;99.90
12688;DHT22;6408;59.388;17.798;2022-07-31T04:34:03;18.20;99.90
12688;DHT22;6408;59.388;17.798;2022-07-31T04:36:29;18.40;99.90
12688;DHT22;6408;59.388;17.798;2022-07-31T04:38:58;18.40;99.90
12688;DHT22;6408;59.388;17.798;2022-07-31T04:41:25;18.50;99.90
12688;DHT22;6408;59.388;17.798;2022-07-31T04:43:52;18.60;99.90
12688;DHT22;6408;59.388;17.798;2022-07-31T04:46:19;18.70;99.90
12688;DHT22;6408;59.388;17.798;2022-07-31T04:48:45;18.80;99.90
12688;DHT22;6408;59.388;17.798;2022-07-31T04:51:16;18.80;99.90
12688;DHT22;6408;59.388;17.798;2022-07-31T04:53:43;18.90;99.90
12688;DHT22;6408;59.388;17.798;2022-07-31T04:56:11;19.00;99.90
12688;DHT22;6408;59.388;17.798;2022-07-31T04:58:56;19.10;99.90
12688;DHT22;6408;59.388;17.798;2022-07-31T05:01:23;19.20;99.90
12688;DHT22;6408;59.388;17.798;2022-07-31T05:03:49;19.30;99.90
12688;DHT22;6408;59.388;17.798;2022-07-31T05:06:16;19.40;99.90
12688;DHT22;6408;59.388;17.798;2022-07-31T05:08:43;19.50;99.90
12688;DHT22;6408;59.388;17.798;2022-07-31T05:11:11;19.60;99.90
12688;DHT22;6408;59.388;17.798;2022-07-31T05:13:47;19.60;99.90
12688;DHT22;6408;59.388;17.798;2022-07-31T05:16:14;19.70;99.90
12688;DHT22;6408;59.388;17.798;2022-07-31T05:18:41;19.80;99.90
12688;DHT22;6408;59.388;17.798;2022-07-31T05:21:09;20.00;99.90
12688;DHT22;6408;59.388;17.798;2022-07-31T05:23:36;20.00;99.90
12688;DHT22;6408;59.388;17.798;2022-07-31T05:26:03;20.20;99.90
12688;DHT22;6408;59.388;17.798;2022-07-31T05:28:32;20.20;99.90
12688;DHT22;6408;59.388;17.798;2022-07-31T05:30:59;20.30;99.90
12688;DHT22;6408;59.388;17.798;2022-07-31T05:33:26;20.40;99.90
12688;DHT22;6408;59.388;17.798;2022-07-31T05:35:54;20.40;99.90
12688;DHT22;6408;59.388;17.798;2022-07-31T05:38:21;20.50;99.90
12688;DHT22;6408;59.388;17.798;2022-07-31T05:40:48;20.60;99.90
12688;DHT22;6408;59.388;17.798;2022-07-31T05:43:15;20.80;99.90
12688;DHT22;6408;59.388;17.798;2022-07-31T05:45:43;20.90;99.90
12688;DHT22;6408;59.388;17.798;2022-07-31T05:48:11;20.90;99.90
12688;DHT22;6408;59.388;17.798;2022-07-31T05:50:40;20.90;99.90
12688;DHT22;6408;59.388;17.798;2022-07-31T05:53:07;21.10;99.90
12688;DHT22;6408;59.388;17.798;2022-07-31T05:55:36;21.20;99.90
12688;DHT22;6408;59.388;17.798;2022-07-31T05:58:03;21.30;99.90
12688;DHT22;6408;59.388;17.798;2022-07-31T06:00:30;21.40;99.90
12688;DHT22;6408;59.388;17.798;2022-07-31T06:02:58;21.50;99.90
12688;DHT22;6408;59.388;17.798;2022-07-31T06:05:25;21.60;99.90
12688;DHT22;6408;59.388;17.798;2022-07-31T06:07:52;21.70;99.90
12688;DHT22;6408;59.388;17.798;2022-07-31T06:10:21;21.80;99.90
12688;DHT22;6408;59.388;17.798;2022-07-31T06:12:48;21.90;99.90
12688;DHT22;6408;59.388;17.798;2022-07-31T06:15:15;22.00;99.90
12688;DHT22;6408;59.388;17.798;2022-07-31T06:17:42;22.00;99.90
12688;DHT22;6408;59.388;17.798;2022-07-31T06:20:11;22.10;99.90
12688;DHT22;6408;59.388;17.798;2022-07-31T06:22:39;22.20;99.90
12688;DHT22;6408;59.388;17.798;2022-07-31T06:25:08;22.30;99.90
12688;DHT22;6408;59.388;17.798;2022-07-31T06:27:36;22.40;99.90
12688;DHT22;6408;59.388;17.798;2022-07-31T06:30:04;22.50;99.90
12688;DHT22;6408;59.388;17.798;2022-07-31T06:32:31;22.50;99.90
12688;DHT22;6408;59.388;17.798;2022-07-31T06:34:58;22.60;99.90
12688;DHT22;6408;59.388;17.798;2022-07-31T06:37:26;22.70;99.90
12688;DHT22;6408;59.388;17.798;2022-07-31T06:39:53;22.70;99.90
12688;DHT22;6408;59.388;17.798;2022-07-31T06:42:21;22.80;99.90
12688;DHT22;6408;59.388;17.798;2022-07-31T06:44:48;22.90;99.90
12688;DHT22;6408;59.388;17.798;2022-07-31T06:47:15;23.10;99.90
12688;DHT22;6408;59.388;17.798;2022-07-31T06:49:42;23.10;99.90
12688;DHT22;6408;59.388;17.798;2022-07-31T06:52:09;23.20;99.90
12688;DHT22;6408;59.388;17.798;2022-07-31T06:54:37;23.30;99.90
12688;DHT22;6408;59.388;17.798;2022-07-31T06:57:04;23.40;99.90
12688;DHT22;6408;59.388;17.798;2022-07-31T06:59:31;23.60;99.90
12688;DHT22;6408;59.388;17.798;2022-07-31T07:01:58;23.70;99.90
12688;DHT22;6408;59.388;17.798;2022-07-31T07:04:24;23.80;99.90
12688;DHT22;6408;59.388;17.798;2022-07-31T07:06:51;23.90;99.90
12688;DHT22;6408;59.388;17.798;2022-07-31T07:09:18;24.00;99.90
12688;DHT22;6408;59.388;17.798;2022-07-31T07:11:46;24.10;99.90
12688;DHT22;6408;59.388;17.798;2022-07-31T07:14:13;24.20;99.90
12688;DHT22;6408;59.388;17.798;2022-07-31T07:16:40;24.30;99.90
12688;DHT22;6408;59.388;17.798;2022-07-31T07:19:07;24.40;99.90
12688;DHT22;6408;59.388;17.798;2022-07-31T07:21:34;24.40;99.90
12688;DHT22;6408;59.388;17.798;2022-07-31T07:24:01;24.60;99.90
12688;DHT22;6408;59.388;17.798;2022-07-31T07:26:28;24.70;99.90
12688;DHT22;6408;59.388;17.798;2022-07-31T07:28:57;24.70;99.90
12688;DHT22;6408;59.388;17.798;2022-07-31T07:31:24;24.80;99.90
12688;DHT22;6408;59.388;17.798;2022-07-31T07:33:51;24.80;99.90
12688;DHT22;6408;59.388;17.798;2022-07-31T07:36:18;25.00;99.90
12688;DHT22;6408;59.388;17.798;2022-07-31T07:38:44;25.00;99.90
12688;DHT22;6408;59.388;17.798;2022-07-31T07:41:11;25.10;99.90
12688;DHT22;6408;59.388;17.798;2022-07-31T07:43:38;25.10;99.90
12688;DHT22;6408;59.388;17.798;2022-07-31T07:46:06;25.30;99.90
12688;DHT22;6408;59.388;17.798;2022-07-31T07:48:33;25.30;99.90
12688;DHT22;6408;59.388;17.798;2022-07-31T07:51:00;25.40;99.90
12688;DHT22;6408;59.388;17.798;2022-07-31T07:53:27;25.40;99.90
12688;DHT22;6408;59.388;17.798;2022-07-31T07:55:53;25.50;99.90
12688;DHT22;6408;59.388;17.798;2022-07-31T07:58:20;25.60;99.90
12688;DHT22;6408;59.388;17.798;2022-07-31T08:00:47;25.60;99.90
12688;DHT22;6408;59.388;17.798;2022-07-31T08:03:15;25.80;99.90
12688;DHT22;6408;59.388;17.798;2022-07-31T08:05:42;25.90;99.90
12688;DHT22;6408;59.388;17.798;2022-07-31T08:08:09;26.00;99.90
12688;DHT22;6408;59.388;17.798;2022-07-31T08:10:35;26.00;99.90
12688;DHT22;6408;59.388;17.798;2022-07-31T08:13:04;26.10;99.90
12688;DHT22;6408;59.388;17.798;2022-07-31T08:15:30;26.20;99.90
12688;DHT22;6408;59.388;17.798;2022-07-31T08:17:57;26.30;99.90
12688;DHT22;6408;59.388;17.798;2022-07-31T08:20:25;26.40;99.90
12688;DHT22;6408;59.388;17.798;2022-07-31T08:22:52;26.40;99.90
12688;DHT22;6408;59.388;17.798;2022-07-31T08:25:19;26.50;99.90
12688;DHT22;6408;59.388;17.798;2022-07-31T08:27:47;26.50;99.90
12688;DHT22;6408;59.388;17.798;2022-07-31T08:30:15;26.60;99.90
12688;DHT22;6408;59.388;17.798;2022-07-31T08:32:41;26.80;99.90
12688;DHT22;6408;59.388;17.798;2022-07-31T08:35:08;26.90;99.90
12688;DHT22;6408;59.388;17.798;2022-07-31T08:37:36;27.00;99.90
12688;DHT22;6408;59.388;17.798;2022-07-31T08:40:04;27.10;99.90
12688;DHT22;6408;59.388;17.798;2022-07-31T08:42:31;27.00;99.90
12688;DHT22;6408;59.388;17.798;2022-07-31T08:44:58;27.10;99.90
12688;DHT22;6408;59.388;17.798;2022-07-31T08:47:25;27.30;99.90
12688;DHT22;6408;59.388;17.798;2022-07-31T08:49:53;27.30;99.90
12688;DHT22;6408;59.388;17.798;2022-07-31T08:52:23;27.50;99.90
12688;DHT22;6408;59.388;17.798;2022-07-31T08:54:52;27.50;99.90
12688;DHT22;6408;59.388;17.798;2022-07-31T08:57:19;27.60;99.90
12688;DHT22;6408;59.388;17.798;2022-07-31T08:59:46;27.60;99.90
12688;DHT22;6408;59.388;17.798;2022-07-31T09:02:16;27.70;99.90
12688;DHT22;6408;59.388;17.798;2022-07-31T09:04:44;27.70;99.90
12688;DHT22;6408;59.388;17.798;2022-07-31T09:07:14;27.80;99.90
12688;DHT22;6408;59.388;17.798;2022-07-31T09:09:42;27.80;99.90
12688;DHT22;6408;59.388;17.798;2022-07-31T09:12:10;27.80;99.90
12688;DHT22;6408;59.388;17.798;2022-07-31T09:14:38;28.00;99.90
12688;DHT22;6408;59.388;17.798;2022-07-31T09:17:05;27.90;99.90
12688;DHT22;6408;59.388;17.798;2022-07-31T09:19:37;28.00;99.90
12688;DHT22;6408;59.388;17.798;2022-07-31T09:22:04;28.00;99.90
12688;DHT22;6408;59.388;17.798;2022-07-31T09:24:33;28.10;99.90
12688;DHT22;6408;59.388;17.798;2022-07-31T09:27:02;28.20;99.90
12688;DHT22;6408;59.388;17.798;2022-07-31T09:29:38;28.40;99.90
12688;DHT22;6408;59.388;17.798;2022-07-31T09:32:10;28.40;99.90
12688;DHT22;6408;59.388;17.798;2022-07-31T09:34:37;28.40;99.90
12688;DHT22;6408;59.388;17.798;2022-07-31T09:37:08;28.50;99.90
12688;DHT22;6408;59.388;17.798;2022-07-31T09:39:36;28.50;99.90
12688;DHT22;6408;59.388;17.798;2022-07-31T09:42:03;28.60;99.90
12688;DHT22;6408;59.388;17.798;2022-07-31T09:44:42;28.60;99.90
12688;DHT22;6408;59.388;17.798;2022-07-31T09:47:19;28.70;99.90
12688;DHT22;6408;59.388;17.798;2022-07-31T09:49:52;28.70;99.90
12688;DHT22;6408;59.388;17.798;2022-07-31T09:52:20;28.80;99.90
12688;DHT22;6408;59.388;17.798;2022-07-31T09:54:47;28.90;99.90
12688;DHT22;6408;59.388;17.798;2022-07-31T09:57:14;29.00;99.90
12688;DHT22;6408;59.388;17.798;2022-07-31T09:59:43;28.90;99.90
12688;DHT22;6408;59.388;17.798;2022-07-31T10:02:12;28.80;99.90
12688;DHT22;6408;59.388;17.798;2022-07-31T10:04:41;28.90;99.90
12688;DHT22;6408;59.388;17.798;2022-07-31T10:07:10;29.00;99.90
12688;DHT22;6408;59.388;17.798;2022-07-31T10:09:39;29.00;99.90
12688;DHT22;6408;59.388;17.798;2022-07-31T10:12:11;29.10;99.90
12688;DHT22;6408;59.388;17.798;2022-07-31T10:14:41;29.10;99.90
12688;DHT22;6408;59.388;17.798;2022-07-31T10:17:11;29.20;99.90
12688;DHT22;6408;59.388;17.798;2022-07-31T10:19:41;29.30;99.90
12688;DHT22;6408;59.388;17.798;2022-07-31T10:22:11;29.40;99.90
12688;DHT22;6408;59.388;17.798;2022-07-31T10:24:45;29.30;99.90
12688;DHT22;6408;59.388;17.798;2022-07-31T10:27:14;29.30;99.90
12688;DHT22;6408;59.388;17.798;2022-07-31T10:29:43;29.30;99.90
12688;DHT22;6408;59.388;17.798;2022-07-31T10:32:12;29.30;99.90
12688;DHT22;6408;59.388;17.798;2022-07-31T10:34:39;29.20;99.90
12688;DHT22;6408;59.388;17.798;2022-07-31T10:37:10;29.00;99.90
12688;DHT22;6408;59.388;17.798;2022-07-31T10:39:44;29.10;99.90
12688;DHT22;6408;59.388;17.798;2022-07-31T10:42:23;29.20;99.90
12688;DHT22;6408;59.388;17.798;2022-07-31T10:44:56;29.40;99.90
12688;DHT22;6408;59.388;17.798;2022-07-31T10:47:25;29.50;99.90
12688;DHT22;6408;59.388;17.798;2022-07-31T10:49:52;29.50;99.90
12688;DHT22;6408;59.388;17.798;2022-07-31T10:52:26;29.30;99.90
12688;DHT22;6408;59.388;17.798;2022-07-31T10:54:53;29.40;99.90
12688;DHT22;6408;59.388;17.798;2022-07-31T10:57:23;29.40;99.90
12688;DHT22;6408;59.388;17.798;2022-07-31T10:59:50;29.20;99.90
12688;DHT22;6408;59.388;17.798;2022-07-31T11:02:28;29.30;99.90
12688;DHT22;6408;59.388;17.798;2022-07-31T11:05:09;29.40;99.90
12688;DHT22;6408;59.388;17.798;2022-07-31T11:07:37;29.50;99.90
12688;DHT22;6408;59.388;17.798;2022-07-31T11:10:09;29.60;99.90
12688;DHT22;6408;59.388;17.798;2022-07-31T11:12:36;29.60;99.90
12688;DHT22;6408;59.388;17.798;2022-07-31T11:15:03;29.60;99.90
12688;DHT22;6408;59.388;17.798;2022-07-31T11:17:32;29.60;99.80
12688;DHT22;6408;59.388;17.798;2022-07-31T11:20:01;29.60;99.90
12688;DHT22;6408;59.388;17.798;2022-07-31T11:22:28;29.70;99.90
12688;DHT22;6408;59.388;17.798;2022-07-31T11:24:55;29.80;99.30
12688;DHT22;6408;59.388;17.798;2022-07-31T11:27:29;29.80;99.00
12688;DHT22;6408;59.388;17.798;2022-07-31T11:30:04;29.80;99.70
12688;DHT22;6408;59.388;17.798;2022-07-31T11:32:32;29.80;99.40
12688;DHT22;6408;59.388;17.798;2022-07-31T11:34:59;29.80;98.90
12688;DHT22;6408;59.388;17.798;2022-07-31T11:37:27;29.80;98.50
12688;DHT22;6408;59.388;17.798;2022-07-31T11:39:55;29.80;97.50
12688;DHT22;6408;59.388;17.798;2022-07-31T11:42:23;29.70;97.40
12688;DHT22;6408;59.388;17.798;2022-07-31T11:44:51;29.70;96.70
12688;DHT22;6408;59.388;17.798;2022-07-31T11:47:19;29.70;96.80
12688;DHT22;6408;59.388;17.798;2022-07-31T11:49:47;29.70;97.90
12688;DHT22;6408;59.388;17.798;2022-07-31T11:52:13;29.70;98.40
12688;DHT22;6408;59.388;17.798;2022-07-31T11:54:40;29.70;99.00
12688;DHT22;6408;59.388;17.798;2022-07-31T11:57:07;29.80;99.30
12688;DHT22;6408;59.388;17.798;2022-07-31T11:59:37;29.80;99.60
12688;DHT22;6408;59.388;17.798;2022-07-31T12:02:05;29.80;99.70
12688;DHT22;6408;59.388;17.798;2022-07-31T12:04:32;29.80;98.70
12688;DHT22;6408;59.388;17.798;2022-07-31T12:07:02;29.70;98.50
12688;DHT22;6408;59.388;17.798;2022-07-31T12:09:30;29.70;98.40
12688;DHT22;6408;59.388;17.798;2022-07-31T12:11:57;29.60;98.10
12688;DHT22;6408;59.388;17.798;2022-07-31T12:14:28;29.50;97.80
12688;DHT22;6408;59.388;17.798;2022-07-31T12:16:55;29.60;97.10
12688;DHT22;6408;59.388;17.798;2022-07-31T12:19:26;29.60;97.00
12688;DHT22;6408;59.388;17.798;2022-07-31T12:21:53;29.40;96.50
12688;DHT22;6408;59.388;17.798;2022-07-31T12:24:22;29.50;96.50
12688;DHT22;6408;59.388;17.798;2022-07-31T12:26:50;29.50;97.30
12688;DHT22;6408;59.388;17.798;2022-07-31T12:29:18;29.50;97.20
12688;DHT22;6408;59.388;17.798;2022-07-31T12:31:47;29.40;96.90
12688;DHT22;6408;59.388;17.798;2022-07-31T12:34:25;29.30;96.40
12688;DHT22;6408;59.388;17.798;2022-07-31T12:37:02;29.40;96.70
12688;DHT22;6408;59.388;17.798;2022-07-31T12:39:33;29.30;96.80
12688;DHT22;6408;59.388;17.798;2022-07-31T12:42:00;29.40;95.80
12688;DHT22;6408;59.388;17.798;2022-07-31T12:44:27;29.60;96.20
12688;DHT22;6408;59.388;17.798;2022-07-31T12:46:54;29.50;95.50
12688;DHT22;6408;59.388;17.798;2022-07-31T12:49:21;29.50;95.40
12688;DHT22;6408;59.388;17.798;2022-07-31T12:51:48;29.60;95.00
12688;DHT22;6408;59.388;17.798;2022-07-31T12:54:15;29.70;94.70
12688;DHT22;6408;59.388;17.798;2022-07-31T12:56:44;29.60;95.10
12688;DHT22;6408;59.388;17.798;2022-07-31T12:59:11;29.30;93.80
12688;DHT22;6408;59.388;17.798;2022-07-31T13:01:38;29.40;93.50
12688;DHT22;6408;59.388;17.798;2022-07-31T13:04:05;29.20;93.40
12688;DHT22;6408;59.388;17.798;2022-07-31T13:06:34;29.20;92.40
12688;DHT22;6408;59.388;17.798;2022-07-31T13:09:02;29.30;93.10
12688;DHT22;6408;59.388;17.798;2022-07-31T13:11:29;29.20;91.90
12688;DHT22;6408;59.388;17.798;2022-07-31T13:13:59;29.10;90.90
12688;DHT22;6408;59.388;17.798;2022-07-31T13:16:26;29.10;91.80
12688;DHT22;6408;59.388;17.798;2022-07-31T13:18:52;29.00;91.90
12688;DHT22;6408;59.388;17.798;2022-07-31T13:21:19;28.80;91.00
12688;DHT22;6408;59.388;17.798;2022-07-31T13:23:46;28.80;90.00
12688;DHT22;6408;59.388;17.798;2022-07-31T13:26:12;28.90;90.40
12688;DHT22;6408;59.388;17.798;2022-07-31T13:28:39;29.00;90.50
12688;DHT22;6408;59.388;17.798;2022-07-31T13:31:07;28.80;90.20
12688;DHT22;6408;59.388;17.798;2022-07-31T13:33:34;28.80;90.40
12688;DHT22;6408;59.388;17.798;2022-07-31T13:36:01;28.70;91.00
12688;DHT22;6408;59.388;17.798;2022-07-31T13:38:28;28.70;91.60
12688;DHT22;6408;59.388;17.798;2022-07-31T13:40:54;28.70;89.60
12688;DHT22;6408;59.388;17.798;2022-07-31T13:43:39;28.60;87.30
12688;DHT22;6408;59.388;17.798;2022-07-31T13:46:07;28.60;88.70
12688;DHT22;6408;59.388;17.798;2022-07-31T13:48:33;28.50;88.70
12688;DHT22;6408;59.388;17.798;2022-07-31T13:51:00;28.30;88.70
12688;DHT22;6408;59.388;17.798;2022-07-31T13:53:27;28.10;89.90
12688;DHT22;6408;59.388;17.798;2022-07-31T13:55:54;28.20;90.00
12688;DHT22;6408;59.388;17.798;2022-07-31T13:58:21;28.20;91.30
12688;DHT22;6408;59.388;17.798;2022-07-31T14:00:48;28.10;90.90
12688;DHT22;6408;59.388;17.798;2022-07-31T14:03:16;28.20;91.60
12688;DHT22;6408;59.388;17.798;2022-07-31T14:05:42;28.10;89.10
12688;DHT22;6408;59.388;17.798;2022-07-31T14:08:09;28.00;90.20
12688;DHT22;6408;59.388;17.798;2022-07-31T14:10:36;27.90;89.80
12688;DHT22;6408;59.388;17.798;2022-07-31T14:13:03;28.00;90.40
12688;DHT22;6408;59.388;17.798;2022-07-31T14:15:30;27.70;89.20
12688;DHT22;6408;59.388;17.798;2022-07-31T14:17:57;27.50;90.70
12688;DHT22;6408;59.388;17.798;2022-07-31T14:20:25;27.40;91.50
12688;DHT22;6408;59.388;17.798;2022-07-31T14:22:52;27.40;91.30
12688;DHT22;6408;59.388;17.798;2022-07-31T14:25:19;27.30;91.10
12688;DHT22;6408;59.388;17.798;2022-07-31T14:27:46;27.30;91.20
12688;DHT22;6408;59.388;17.798;2022-07-31T14:30:14;27.40;90.90
12688;DHT22;6408;59.388;17.798;2022-07-31T14:32:41;27.30;90.00
12688;DHT22;6408;59.388;17.798;2022-07-31T14:35:09;27.10;91.40
12688;DHT22;6408;59.388;17.798;2022-07-31T14:37:37;27.20;90.40
12688;DHT22;6408;59.388;17.798;2022-07-31T14:40:07;27.20;90.00
12688;DHT22;6408;59.388;17.798;2022-07-31T14:42:34;27.40;91.20
12688;DHT22;6408;59.388;17.798;2022-07-31T14:45:01;27.40;90.60
12688;DHT22;6408;59.388;17.798;2022-07-31T14:47:29;27.40;89.50
12688;DHT22;6408;59.388;17.798;2022-07-31T14:49:56;27.20;89.90
12688;DHT22;6408;59.388;17.798;2022-07-31T14:52:22;27.10;90.60
12688;DHT22;6408;59.388;17.798;2022-07-31T14:54:50;27.00;90.20
12688;DHT22;6408;59.388;17.798;2022-07-31T14:57:17;27.00;86.90
12688;DHT22;6408;59.388;17.798;2022-07-31T14:59:44;27.10;88.00
12688;DHT22;6408;59.388;17.798;2022-07-31T15:02:11;27.20;89.50
12688;DHT22;6408;59.388;17.798;2022-07-31T15:04:37;27.20;88.80
12688;DHT22;6408;59.388;17.798;2022-07-31T15:07:04;27.00;89.80
12688;DHT22;6408;59.388;17.798;2022-07-31T15:09:31;27.10;89.50
12688;DHT22;6408;59.388;17.798;2022-07-31T15:11:59;27.20;88.90
12688;DHT22;6408;59.388;17.798;2022-07-31T15:14:26;27.20;90.30
12688;DHT22;6408;59.388;17.798;2022-07-31T15:16:53;27.00;90.00
12688;DHT22;6408;59.388;17.798;2022-07-31T15:19:19;27.00;90.10
12688;DHT22;6408;59.388;17.798;2022-07-31T15:21:46;27.00;90.80
12688;DHT22;6408;59.388;17.798;2022-07-31T15:24:13;27.00;90.60
12688;DHT22;6408;59.388;17.798;2022-07-31T15:26:39;27.10;90.80
12688;DHT22;6408;59.388;17.798;2022-07-31T15:29:07;27.10;91.90
12688;DHT22;6408;59.388;17.798;2022-07-31T15:31:34;26.90;91.70
12688;DHT22;6408;59.388;17.798;2022-07-31T15:34:01;26.90;92.30
12688;DHT22;6408;59.388;17.798;2022-07-31T15:36:28;26.80;92.80